Time;durP1;ratioP1;P1;durP2;ratioP2;P2;SDS_P1;SDS_P2;PMS_P1;PMS_P2;Temp;Humidity;BMP_temperature;BMP_pressure;BME280_temperature;BME280_humidity;BME280_pressure;Samples;Min_cycle;Max_cycle;Signal;HPM_P1;HPM_P2
2023/07/28 00:01:30;;;;;;;23.17;9.85;;;18.40;99.90;;;;;;5144183;27;20117;-77
2023/07/28 00:03:57;;;;;;;21.90;9.60;;;18.40;99.90;;;;;;5143355;27;20130;-77
2023/07/28 00:06:23;;;;;;;30.02;10.18;;;18.40;99.90;;;;;;5141338;27;20047;-80
2023/07/28 00:08:48;;;;;;;21.73;10.20;;;18.40;99.90;;;;;;5123451;27;20082;-77
2023/07/28 00:11:15;;;;;;;22.42;9.88;;;18.40;99.90;;;;;;5142777;27;20494;-77
2023/07/28 00:13:42;;;;;;;20.75;9.10;;;18.40;99.90;;;;;;5130897;27;20069;-78
2023/07/28 00:16:08;;;;;;;19.27;8.75;;;18.40;99.90;;;;;;5128311;27;20057;-77
2023/07/28 00:18:34;;;;;;;20.27;9.55;;;18.30;99.90;;;;;;5145933;27;20031;-77
2023/07/28 00:21:00;;;;;;;20.88;9.18;;;18.40;99.90;;;;;;5142499;27;20043;-77
2023/07/28 00:23:25;;;;;;;16.15;9.57;;;18.40;99.90;;;;;;5147057;27;20031;-77
2023/07/28 00:25:51;;;;;;;18.15;9.70;;;18.40;99.90;;;;;;5127636;27;20038;-77
2023/07/28 00:28:17;;;;;;;19.20;9.98;;;18.40;99.90;;;;;;5131105;27;20049;-77
2023/07/28 00:30:42;;;;;;;19.77;10.15;;;18.30;99.90;;;;;;5151642;27;20034;-77
2023/07/28 00:33:08;;;;;;;22.92;10.43;;;18.40;99.90;;;;;;5144131;27;20110;-77
2023/07/28 00:35:33;;;;;;;20.15;10.95;;;18.40;99.90;;;;;;5136609;27;20100;-78
2023/07/28 00:37:59;;;;;;;19.13;9.88;;;18.40;99.90;;;;;;5149231;27;20099;-78
2023/07/28 00:40:24;;;;;;;22.02;10.50;;;18.30;99.90;;;;;;5142301;27;20037;-76
2023/07/28 00:42:50;;;;;;;22.48;10.20;;;18.30;99.90;;;;;;5136563;27;20493;-77
2023/07/28 00:45:16;;;;;;;24.33;11.40;;;18.30;99.90;;;;;;5148749;27;20062;-76
2023/07/28 00:47:42;;;;;;;18.98;11.25;;;18.30;99.90;;;;;;5145775;27;20161;-78
2023/07/28 00:50:10;;;;;;;22.08;11.90;;;18.30;99.90;;;;;;5143298;27;20081;-77
2023/07/28 00:52:36;;;;;;;25.05;11.85;;;18.30;99.90;;;;;;5146796;27;20039;-76
2023/07/28 00:55:02;;;;;;;24.90;11.57;;;18.30;99.90;;;;;;5143011;27;20513;-77
2023/07/28 00:57:28;;;;;;;26.48;13.45;;;18.30;99.90;;;;;;5147596;27;20034;-77
2023/07/28 00:59:53;;;;;;;28.63;12.85;;;18.30;99.90;;;;;;5143547;27;20581;-77
2023/07/28 01:02:20;;;;;;;19.25;12.45;;;18.30;99.90;;;;;;5142899;27;20034;-76
2023/07/28 01:04:46;;;;;;;21.05;11.48;;;18.30;99.90;;;;;;5151325;27;20031;-77
2023/07/28 01:07:41;;;;;;;28.77;12.95;;;18.30;99.90;;;;;;5144691;27;20532;-76
2023/07/28 01:10:31;;;;;;;27.13;12.68;;;18.30;99.90;;;;;;5122440;27;20046;-76
2023/07/28 01:12:56;;;;;;;24.05;12.55;;;18.30;99.90;;;;;;5157580;27;20546;-76
2023/07/28 01:15:22;;;;;;;27.77;12.40;;;18.30;99.90;;;;;;5139383;27;20035;-77
2023/07/28 01:17:47;;;;;;;35.10;13.88;;;18.30;99.90;;;;;;5135171;27;20075;-76
2023/07/28 01:20:13;;;;;;;28.95;13.18;;;18.10;99.90;;;;;;5135034;27;20031;-76
2023/07/28 01:22:57;;;;;;;25.80;13.52;;;18.30;99.90;;;;;;5150386;27;20031;-77
2023/07/28 01:25:53;;;;;;;26.80;14.15;;;18.30;99.90;;;;;;5141416;27;20035;-76
2023/07/28 01:28:19;;;;;;;30.23;14.32;;;18.30;99.90;;;;;;5142531;27;20100;-76
2023/07/28 01:30:45;;;;;;;31.02;14.02;;;18.30;99.90;;;;;;5124049;27;20413;-76
2023/07/28 01:33:11;;;;;;;28.00;13.73;;;18.30;99.90;;;;;;5137493;27;20434;-77
2023/07/28 01:35:38;;;;;;;30.02;14.95;;;18.30;99.90;;;;;;5139888;27;20130;-77
2023/07/28 01:38:04;;;;;;;26.60;13.93;;;18.30;99.90;;;;;;5146821;27;20405;-76
2023/07/28 01:40:29;;;;;;;33.03;15.07;;;18.30;99.90;;;;;;5144113;27;20556;-77
2023/07/28 01:42:55;;;;;;;30.60;13.18;;;18.30;99.90;;;;;;5125306;27;20068;-77
2023/07/28 01:45:21;;;;;;;24.23;14.05;;;18.30;99.90;;;;;;5146233;27;20534;-77
2023/07/28 01:47:46;;;;;;;28.23;13.10;;;18.30;99.90;;;;;;5142702;27;20039;-77
2023/07/28 01:50:12;;;;;;;24.98;12.50;;;18.30;99.90;;;;;;5144500;27;20038;-77
2023/07/28 01:52:37;;;;;;;25.98;12.93;;;18.30;99.90;;;;;;5142060;27;20443;-77
2023/07/28 01:55:03;;;;;;;27.73;14.70;;;18.30;99.90;;;;;;5144199;27;20041;-77
2023/07/28 01:57:33;;;;;;;30.58;13.93;;;18.30;99.90;;;;;;5144861;27;20035;-77
2023/07/28 01:59:58;;;;;;;26.42;13.85;;;18.30;99.90;;;;;;5149258;27;20034;-78
2023/07/28 02:02:24;;;;;;;21.23;12.48;;;18.30;99.90;;;;;;5142779;27;20123;-77
2023/07/28 02:04:49;;;;;;;25.13;13.55;;;18.30;99.90;;;;;;5127847;27;20042;-77
2023/07/28 02:07:15;;;;;;;27.67;14.43;;;18.30;99.90;;;;;;5147278;27;20043;-77
2023/07/28 02:09:41;;;;;;;30.55;14.57;;;18.30;99.90;;;;;;5147819;27;20034;-77
2023/07/28 02:12:06;;;;;;;28.98;13.95;;;18.30;99.90;;;;;;5124074;27;20121;-77
2023/07/28 02:14:32;;;;;;;30.95;14.77;;;18.20;99.90;;;;;;5144211;27;20040;-77
2023/07/28 02:16:57;;;;;;;37.13;15.75;;;18.30;99.90;;;;;;5121604;27;20061;-77
2023/07/28 02:19:24;;;;;;;23.27;13.98;;;18.30;99.90;;;;;;5147821;27;20455;-77
2023/07/28 02:21:50;;;;;;;42.83;15.48;;;18.30;99.90;;;;;;5142354;27;20082;-76
2023/07/28 02:24:15;;;;;;;31.23;14.38;;;18.30;99.90;;;;;;5135863;27;20043;-77
2023/07/28 02:26:41;;;;;;;30.52;14.38;;;18.30;99.90;;;;;;5146984;27;20041;-77
2023/07/28 02:29:06;;;;;;;27.25;13.68;;;18.30;99.90;;;;;;5145311;27;20138;-77
2023/07/28 02:31:32;;;;;;;27.73;13.13;;;18.30;99.90;;;;;;5148372;27;20086;-77
2023/07/28 02:33:58;;;;;;;23.85;13.30;;;18.30;99.90;;;;;;5132423;27;20039;-76
2023/07/28 02:36:23;;;;;;;34.47;12.55;;;18.30;99.90;;;;;;5130322;27;20528;-76
2023/07/28 02:38:48;;;;;;;27.83;12.48;;;18.30;99.90;;;;;;5143255;27;20034;-76
2023/07/28 02:41:14;;;;;;;22.58;12.60;;;18.30;99.90;;;;;;5151634;27;20131;-76
2023/07/28 02:43:40;;;;;;;25.67;13.48;;;18.20;99.90;;;;;;5149909;27;20026;-77
2023/07/28 02:46:05;;;;;;;27.25;12.25;;;18.30;99.90;;;;;;5139215;27;20030;-77
2023/07/28 02:48:31;;;;;;;26.25;13.50;;;18.30;99.90;;;;;;5143270;27;20138;-76
2023/07/28 02:50:56;;;;;;;36.28;12.65;;;18.30;99.90;;;;;;5143297;27;20043;-76
2023/07/28 02:53:22;;;;;;;23.25;11.30;;;18.30;99.90;;;;;;5136576;27;20183;-77
2023/07/28 02:55:48;;;;;;;21.15;11.40;;;18.30;99.90;;;;;;5147043;27;20107;-76
2023/07/28 02:58:14;;;;;;;27.67;12.15;;;18.30;99.90;;;;;;5145990;27;20070;-77
2023/07/28 03:00:40;;;;;;;28.58;11.82;;;18.30;99.90;;;;;;5147020;27;20069;-76
2023/07/28 03:03:06;;;;;;;26.50;11.55;;;18.30;99.90;;;;;;5148520;27;20038;-76
2023/07/28 03:05:32;;;;;;;27.45;11.32;;;18.30;99.90;;;;;;5140390;27;20062;-76
2023/07/28 03:07:58;;;;;;;28.35;11.35;;;18.30;99.90;;;;;;5140809;27;20429;-76
2023/07/28 03:10:24;;;;;;;25.15;11.38;;;18.30;99.90;;;;;;5143931;27;20035;-77
2023/07/28 03:12:50;;;;;;;23.92;12.00;;;18.30;99.90;;;;;;5138778;27;20550;-77
2023/07/28 03:15:15;;;;;;;28.90;11.20;;;18.20;99.90;;;;;;5122039;27;20121;-76
2023/07/28 03:17:41;;;;;;;27.30;11.35;;;18.30;99.90;;;;;;5141440;27;20088;-76
2023/07/28 03:20:07;;;;;;;23.05;10.48;;;18.30;99.90;;;;;;5145270;27;20071;-76
2023/07/28 03:22:32;;;;;;;26.00;10.65;;;18.30;99.90;;;;;;5140348;27;20435;-76
2023/07/28 03:24:58;;;;;;;35.25;11.32;;;18.40;99.90;;;;;;5142556;27;20038;-77
2023/07/28 03:27:24;;;;;;;20.45;9.38;;;18.30;99.90;;;;;;5147827;27;20096;-76
2023/07/28 03:29:50;;;;;;;21.35;9.45;;;18.30;99.90;;;;;;5145670;27;20402;-76
2023/07/28 03:32:15;;;;;;;20.63;10.23;;;18.30;99.90;;;;;;5134714;27;20039;-76
2023/07/28 03:34:41;;;;;;;21.33;10.10;;;18.30;99.90;;;;;;5136490;27;20031;-76
2023/07/28 03:37:06;;;;;;;18.90;8.85;;;18.20;99.90;;;;;;5145542;27;20038;-76
2023/07/28 03:39:32;;;;;;;26.15;9.60;;;18.20;99.90;;;;;;5139129;27;20036;-76
2023/07/28 03:41:58;;;;;;;29.35;9.05;;;18.20;99.90;;;;;;5138418;27;20084;-76
2023/07/28 03:44:23;;;;;;;21.30;8.82;;;18.20;99.90;;;;;;5140177;27;21082;-76
2023/07/28 03:46:49;;;;;;;16.50;8.00;;;18.30;99.90;;;;;;5150247;27;20027;-76
2023/07/28 03:49:15;;;;;;;29.38;9.65;;;18.20;99.90;;;;;;5147928;27;20528;-77
2023/07/28 03:51:40;;;;;;;21.70;9.02;;;18.20;99.90;;;;;;5146300;27;20035;-76
2023/07/28 03:54:06;;;;;;;25.27;9.02;;;18.20;99.90;;;;;;5148318;27;20559;-76
2023/07/28 03:56:31;;;;;;;27.20;9.40;;;18.20;99.90;;;;;;5145001;27;20175;-76
2023/07/28 03:58:57;;;;;;;23.67;8.52;;;18.20;99.90;;;;;;5131302;27;20486;-76
2023/07/28 04:01:22;;;;;;;26.02;8.80;;;18.30;99.90;;;;;;5149910;27;20041;-76
2023/07/28 04:03:48;;;;;;;22.65;8.40;;;18.20;99.90;;;;;;5148652;27;20050;-76
2023/07/28 04:06:14;;;;;;;22.42;9.05;;;18.20;99.90;;;;;;5147441;27;20047;-76
2023/07/28 04:08:40;;;;;;;23.70;9.30;;;18.20;99.90;;;;;;5143139;27;20516;-76
2023/07/28 04:11:05;;;;;;;29.52;9.10;;;18.20;99.90;;;;;;5143170;27;20054;-77
2023/07/28 04:13:31;;;;;;;24.83;9.02;;;18.20;99.90;;;;;;5137791;27;20027;-77
2023/07/28 04:15:57;;;;;;;25.67;9.00;;;18.20;99.90;;;;;;5148849;27;20035;-77
2023/07/28 04:18:23;;;;;;;23.88;8.95;;;18.30;99.90;;;;;;5144017;27;20505;-77
2023/07/28 04:20:48;;;;;;;24.08;8.10;;;18.20;99.90;;;;;;5123048;27;20056;-76
2023/07/28 04:23:14;;;;;;;16.98;7.63;;;18.20;99.90;;;;;;5125461;27;20745;-77
2023/07/28 04:25:39;;;;;;;25.70;9.00;;;18.20;99.90;;;;;;5141287;27;20402;-77
2023/07/28 04:28:05;;;;;;;28.23;8.82;;;18.20;99.90;;;;;;5144805;27;20533;-77
2023/07/28 04:30:30;;;;;;;19.55;8.30;;;18.20;99.90;;;;;;5142034;27;20030;-77
2023/07/28 04:32:56;;;;;;;22.25;8.93;;;18.30;99.90;;;;;;5147093;27;20158;-77
2023/07/28 04:35:21;;;;;;;17.98;8.95;;;18.30;99.90;;;;;;5143455;27;20481;-77
2023/07/28 04:37:47;;;;;;;19.50;8.23;;;18.30;99.90;;;;;;5146174;27;20113;-76
2023/07/28 04:40:13;;;;;;;20.63;8.50;;;18.30;99.90;;;;;;5144576;27;20129;-76
2023/07/28 04:42:39;;;;;;;20.88;7.88;;;18.30;99.90;;;;;;5147838;27;20580;-77
2023/07/28 04:45:05;;;;;;;21.13;8.38;;;18.30;99.90;;;;;;5142505;27;20050;-77
2023/07/28 04:47:30;;;;;;;19.30;8.05;;;18.30;99.90;;;;;;5145106;27;20046;-77
2023/07/28 04:49:56;;;;;;;16.42;7.78;;;18.30;99.90;;;;;;5147750;27;20035;-76
2023/07/28 04:52:21;;;;;;;13.20;7.13;;;18.30;99.90;;;;;;5145389;27;20027;-77
2023/07/28 04:54:47;;;;;;;16.63;7.40;;;18.30;99.90;;;;;;5144156;27;20398;-77
2023/07/28 04:57:12;;;;;;;15.70;7.07;;;18.30;99.90;;;;;;5151519;27;20043;-77
2023/07/28 04:59:38;;;;;;;15.57;7.28;;;18.40;99.90;;;;;;5141767;27;20035;-77
2023/07/28 05:02:04;;;;;;;17.52;6.97;;;18.40;99.90;;;;;;5122287;27;20115;-77
2023/07/28 05:04:29;;;;;;;15.35;6.80;;;18.40;99.90;;;;;;5146462;27;20039;-77
2023/07/28 05:06:55;;;;;;;17.45;6.90;;;18.40;99.90;;;;;;5138990;27;20088;-76
2023/07/28 05:09:21;;;;;;;14.77;6.30;;;18.40;99.90;;;;;;5146477;27;20039;-76
2023/07/28 05:11:46;;;;;;;11.60;6.70;;;18.40;99.90;;;;;;5142579;27;21436;-76
2023/07/28 05:14:12;;;;;;;12.93;6.55;;;18.30;99.90;;;;;;5128236;27;20070;-76
2023/07/28 05:16:37;;;;;;;11.15;6.20;;;18.40;99.90;;;;;;5147210;27;20043;-76
2023/07/28 05:19:06;;;;;;;13.95;7.00;;;18.40;99.90;;;;;;5145373;27;20030;-76
2023/07/28 05:21:31;;;;;;;17.05;7.20;;;18.40;99.90;;;;;;5148295;27;20038;-76
2023/07/28 05:23:57;;;;;;;11.50;6.30;;;18.40;99.90;;;;;;5146899;27;20038;-76
2023/07/28 05:26:22;;;;;;;14.70;7.30;;;18.40;99.90;;;;;;5143729;27;20536;-76
2023/07/28 05:28:48;;;;;;;13.25;7.40;;;18.40;99.90;;;;;;5141013;27;20439;-77
2023/07/28 05:31:15;;;;;;;17.77;7.82;;;18.40;99.90;;;;;;5144630;27;20038;-76
2023/07/28 05:33:40;;;;;;;15.13;7.13;;;18.40;99.90;;;;;;5147289;27;20035;-77
2023/07/28 05:36:06;;;;;;;16.27;7.05;;;18.40;99.90;;;;;;5133135;27;20058;-76
2023/07/28 05:38:32;;;;;;;14.88;7.03;;;18.50;99.90;;;;;;5137169;27;20042;-76
2023/07/28 05:41:02;;;;;;;14.95;6.88;;;18.50;99.90;;;;;;5132573;27;20031;-76
2023/07/28 05:43:29;;;;;;;12.55;7.22;;;18.50;99.90;;;;;;5129474;27;20046;-77
2023/07/28 05:45:56;;;;;;;12.00;6.68;;;18.60;99.90;;;;;;5132565;27;20053;-76
2023/07/28 05:48:22;;;;;;;17.27;6.85;;;18.60;99.90;;;;;;5113657;27;20076;-77
2023/07/28 05:50:48;;;;;;;17.85;7.85;;;18.60;99.90;;;;;;5139681;27;20058;-77
2023/07/28 05:53:13;;;;;;;19.38;8.15;;;18.60;99.90;;;;;;5117059;27;20039;-76
2023/07/28 05:55:39;;;;;;;18.65;7.88;;;18.70;99.90;;;;;;5121420;27;20080;-76
2023/07/28 05:58:05;;;;;;;12.52;7.00;;;18.60;99.90;;;;;;5135248;27;20068;-76
2023/07/28 06:00:31;;;;;;;18.48;6.93;;;18.70;99.90;;;;;;5135079;27;20036;-77
2023/07/28 06:02:57;;;;;;;12.73;6.55;;;18.70;99.90;;;;;;5113581;27;20027;-76
2023/07/28 06:05:22;;;;;;;15.70;7.40;;;18.70;99.90;;;;;;5131046;27;20070;-77
2023/07/28 06:07:48;;;;;;;14.10;7.10;;;18.70;99.90;;;;;;5131002;27;20047;-76
2023/07/28 06:10:13;;;;;;;11.27;6.90;;;18.80;99.90;;;;;;5132645;27;20035;-76
2023/07/28 06:12:39;;;;;;;12.20;7.07;;;18.80;99.90;;;;;;5136751;27;20418;-77
2023/07/28 06:15:06;;;;;;;12.15;6.75;;;18.90;99.90;;;;;;5130864;27;20111;-77
2023/07/28 06:17:31;;;;;;;11.18;7.03;;;18.90;99.90;;;;;;5132044;27;20394;-76
2023/07/28 06:19:57;;;;;;;14.70;7.43;;;19.00;99.90;;;;;;5139005;27;20022;-77
2023/07/28 06:22:23;;;;;;;9.98;6.90;;;19.00;99.90;;;;;;5143961;27;20035;-77
2023/07/28 06:24:49;;;;;;;12.27;7.10;;;18.90;99.90;;;;;;5130902;27;20035;-77
2023/07/28 06:27:14;;;;;;;8.98;7.28;;;18.90;99.90;;;;;;5137046;27;20038;-76
2023/07/28 06:29:40;;;;;;;14.60;7.50;;;18.80;99.90;;;;;;5131335;27;20058;-77
2023/07/28 06:32:05;;;;;;;11.52;7.18;;;18.80;99.90;;;;;;5131147;27;20493;-77
2023/07/28 06:34:31;;;;;;;11.88;7.30;;;18.80;99.90;;;;;;5130454;27;20049;-77
2023/07/28 06:36:57;;;;;;;13.68;7.40;;;18.80;99.90;;;;;;5135681;27;20035;-77
2023/07/28 06:39:24;;;;;;;11.60;7.38;;;18.90;99.90;;;;;;5138567;27;20065;-77
2023/07/28 06:41:50;;;;;;;9.18;7.30;;;18.90;99.90;;;;;;5139602;27;20066;-77
2023/07/28 06:44:15;;;;;;;10.13;7.05;;;19.00;99.90;;;;;;5136110;27;20081;-77
2023/07/28 06:46:41;;;;;;;9.15;6.72;;;19.00;99.90;;;;;;5138875;27;20042;-78
2023/07/28 06:49:06;;;;;;;10.65;7.00;;;19.10;99.90;;;;;;5130781;27;20106;-77
2023/07/28 06:51:33;;;;;;;8.63;7.57;;;19.10;99.90;;;;;;5130691;27;20477;-77
2023/07/28 06:53:59;;;;;;;10.32;7.53;;;19.20;99.90;;;;;;5129107;27;20042;-77
2023/07/28 06:56:24;;;;;;;12.30;7.47;;;19.20;99.90;;;;;;5129611;27;20050;-78
2023/07/28 06:58:50;;;;;;;9.85;7.32;;;19.30;99.90;;;;;;5130433;27;20075;-77
2023/07/28 07:01:15;;;;;;;8.23;7.03;;;19.30;99.90;;;;;;5130292;27;20168;-78
2023/07/28 07:03:41;;;;;;;12.93;7.07;;;19.40;99.90;;;;;;5138611;27;20026;-78
2023/07/28 07:06:06;;;;;;;8.65;6.80;;;19.50;99.90;;;;;;5131338;27;20050;-77
2023/07/28 07:08:32;;;;;;;8.35;6.13;;;19.60;99.90;;;;;;5134553;27;20042;-78
2023/07/28 07:10:58;;;;;;;10.52;6.15;;;19.60;99.90;;;;;;5117233;27;20118;-78
2023/07/28 07:13:23;;;;;;;8.70;6.68;;;19.60;99.90;;;;;;5130495;27;20131;-78
2023/07/28 07:15:49;;;;;;;7.93;6.95;;;19.60;99.90;;;;;;5130459;27;20048;-77
2023/07/28 07:18:15;;;;;;;8.05;6.40;;;19.50;99.90;;;;;;5133266;27;20050;-78
2023/07/28 07:20:40;;;;;;;7.18;6.30;;;19.60;99.90;;;;;;5143022;27;20062;-78
2023/07/28 07:23:06;;;;;;;7.05;6.22;;;19.70;99.90;;;;;;5134650;27;20405;-78
2023/07/28 07:25:32;;;;;;;6.78;5.85;;;19.80;99.90;;;;;;5136212;27;20042;-78
2023/07/28 07:27:57;;;;;;;7.60;6.00;;;19.90;99.90;;;;;;5120597;27;20038;-78
2023/07/28 07:30:23;;;;;;;9.45;6.55;;;20.00;99.90;;;;;;5141179;27;20034;-78
2023/07/28 07:32:48;;;;;;;9.25;6.85;;;20.00;99.90;;;;;;5140704;27;20046;-79
2023/07/28 07:35:14;;;;;;;8.82;6.88;;;20.10;99.90;;;;;;5120682;27;20043;-78
2023/07/28 07:37:40;;;;;;;7.80;6.43;;;20.10;99.90;;;;;;5135371;27;20042;-78
2023/07/28 07:40:07;;;;;;;9.55;6.90;;;20.10;99.90;;;;;;5143493;27;20094;-77
2023/07/28 07:42:47;;;;;;;8.02;6.60;;;20.10;99.90;;;;;;5138172;27;20071;-78
2023/07/28 07:45:14;;;;;;;8.07;6.22;;;20.10;99.90;;;;;;5114469;27;20027;-78
2023/07/28 07:47:41;;;;;;;9.75;6.13;;;20.10;99.90;;;;;;5131915;27;20054;-78
2023/07/28 07:50:08;;;;;;;6.10;5.50;;;20.10;99.90;;;;;;5133254;27;20039;-78
2023/07/28 07:52:35;;;;;;;8.23;6.40;;;20.20;99.90;;;;;;5119631;27;20029;-77
2023/07/28 07:55:02;;;;;;;8.85;5.95;;;20.20;99.90;;;;;;5117536;27;20069;-78
2023/07/28 07:57:27;;;;;;;9.52;6.22;;;20.20;99.90;;;;;;5134068;27;20062;-77
2023/07/28 07:59:53;;;;;;;6.45;5.72;;;20.20;99.90;;;;;;5135439;27;20085;-78
2023/07/28 08:02:18;;;;;;;6.95;5.95;;;20.20;99.90;;;;;;5136538;27;20114;-78
2023/07/28 08:04:44;;;;;;;7.40;5.70;;;20.30;99.90;;;;;;5131221;27;20056;-78
2023/07/28 08:07:09;;;;;;;7.72;5.88;;;20.40;99.90;;;;;;5134556;27;20522;-78
2023/07/28 08:09:35;;;;;;;8.18;6.25;;;20.50;99.90;;;;;;5140605;27;20413;-78
2023/07/28 08:12:01;;;;;;;8.00;6.20;;;20.50;99.90;;;;;;5139241;27;20467;-77
2023/07/28 08:14:26;;;;;;;9.45;5.80;;;20.50;99.90;;;;;;5136809;27;20513;-78
2023/07/28 08:16:52;;;;;;;8.13;5.88;;;20.50;99.90;;;;;;5133515;27;20123;-77
2023/07/28 08:19:17;;;;;;;7.03;5.80;;;20.60;99.90;;;;;;5135586;27;20133;-78
2023/07/28 08:21:43;;;;;;;6.05;5.45;;;20.50;99.90;;;;;;5114743;27;20035;-78
2023/07/28 08:24:09;;;;;;;6.97;5.72;;;20.50;99.90;;;;;;5134666;27;20047;-78
2023/07/28 08:26:34;;;;;;;6.43;5.22;;;20.60;99.90;;;;;;5133456;27;20397;-78
2023/07/28 08:29:00;;;;;;;6.32;5.47;;;20.60;99.90;;;;;;5133203;27;20047;-77
2023/07/28 08:31:25;;;;;;;5.20;4.40;;;20.70;99.90;;;;;;5137303;27;20121;-78
2023/07/28 08:33:51;;;;;;;6.75;4.78;;;20.80;99.90;;;;;;5135429;27;20050;-77
2023/07/28 08:36:16;;;;;;;5.35;4.68;;;20.80;99.90;;;;;;5138009;27;20038;-76
2023/07/28 08:38:42;;;;;;;4.88;4.47;;;20.80;99.90;;;;;;5147108;27;20119;-78
2023/07/28 08:41:07;;;;;;;5.55;4.20;;;20.80;99.90;;;;;;5116997;27;20031;-78
2023/07/28 08:43:33;;;;;;;6.70;4.65;;;20.80;99.90;;;;;;5134124;27;20069;-78
2023/07/28 08:45:58;;;;;;;5.97;4.15;;;20.90;99.90;;;;;;5133286;27;20091;-78
2023/07/28 08:48:24;;;;;;;4.88;4.32;;;21.00;99.90;;;;;;5139630;27;20121;-78
2023/07/28 08:50:50;;;;;;;4.32;3.92;;;21.10;99.90;;;;;;5138079;27;20095;-77
2023/07/28 08:53:17;;;;;;;4.65;3.72;;;21.50;99.90;;;;;;5133590;27;20071;-77
2023/07/28 08:55:42;;;;;;;5.05;4.20;;;21.70;99.90;;;;;;5140475;27;20123;-77
2023/07/28 08:58:26;;;;;;;5.47;3.75;;;21.70;99.90;;;;;;5132941;27;20063;-77
2023/07/28 09:00:52;;;;;;;5.88;4.25;;;21.70;99.90;;;;;;5132514;27;20046;-78
2023/07/28 09:03:19;;;;;;;4.53;4.13;;;21.60;99.90;;;;;;5132579;27;20089;-78
2023/07/28 09:05:46;;;;;;;4.45;3.72;;;21.50;99.90;;;;;;5133592;27;20046;-78
2023/07/28 09:08:15;;;;;;;4.63;3.90;;;21.50;99.90;;;;;;5136838;27;20045;-78
2023/07/28 09:10:45;;;;;;;4.63;4.18;;;21.50;99.90;;;;;;5134316;27;20562;-76
2023/07/28 09:13:12;;;;;;;4.35;3.53;;;21.60;99.90;;;;;;5132947;27;20043;-78
2023/07/28 09:15:38;;;;;;;6.18;3.95;;;21.60;99.90;;;;;;5115127;27;20039;-77
2023/07/28 09:18:03;;;;;;;4.63;3.72;;;21.60;99.90;;;;;;5132392;27;20083;-78
2023/07/28 09:20:36;;;;;;;3.72;3.28;;;21.70;99.90;;;;;;5132376;27;20452;-78
2023/07/28 09:23:03;;;;;;;4.60;3.80;;;21.90;99.90;;;;;;5132111;27;20043;-76
2023/07/28 09:25:29;;;;;;;4.50;3.38;;;21.60;99.90;;;;;;5134071;27;20080;-77
2023/07/28 09:27:55;;;;;;;4.45;3.70;;;21.60;99.90;;;;;;5135755;27;20051;-78
2023/07/28 09:30:23;;;;;;;4.28;3.10;;;21.50;99.90;;;;;;5114998;27;20039;-77
2023/07/28 09:32:51;;;;;;;4.25;3.30;;;21.60;99.90;;;;;;5117217;27;20039;-78
2023/07/28 09:35:17;;;;;;;4.85;2.90;;;21.70;99.90;;;;;;5139709;27;20039;-76
2023/07/28 09:37:45;;;;;;;7.72;2.83;;;21.70;99.90;;;;;;5133228;27;20118;-76
2023/07/28 09:40:13;;;;;;;4.57;2.50;;;21.70;99.90;;;;;;5137723;27;20084;-78
2023/07/28 09:42:44;;;;;;;6.43;3.67;;;21.70;99.90;;;;;;5136028;27;20451;-77
2023/07/28 09:45:10;;;;;;;5.53;3.90;;;21.70;99.90;;;;;;5146185;27;20553;-77
2023/07/28 09:47:37;;;;;;;4.35;3.72;;;21.80;99.90;;;;;;5136736;27;20587;-76
2023/07/28 09:50:08;;;;;;;4.72;3.65;;;21.90;99.90;;;;;;5138770;27;20135;-78
2023/07/28 09:52:37;;;;;;;3.72;3.42;;;22.00;99.90;;;;;;5130326;27;20043;-77
2023/07/28 09:55:08;;;;;;;5.30;3.20;;;22.10;99.90;;;;;;5138493;27;20035;-78
2023/07/28 09:57:39;;;;;;;3.92;2.53;;;22.20;99.90;;;;;;5131616;27;20046;-77
2023/07/28 10:00:08;;;;;;;5.97;3.00;;;22.40;99.90;;;;;;5132943;27;20087;-79
2023/07/28 10:02:35;;;;;;;7.18;2.58;;;22.50;99.90;;;;;;5133859;27;20039;-78
2023/07/28 10:05:02;;;;;;;3.35;2.17;;;22.60;99.90;;;;;;5131466;27;20442;-78
2023/07/28 10:07:28;;;;;;;3.17;2.22;;;22.60;99.90;;;;;;5131538;27;20038;-78
2023/07/28 10:09:54;;;;;;;5.80;2.50;;;22.50;99.90;;;;;;5131040;27;20546;-78
2023/07/28 10:12:26;;;;;;;3.53;2.30;;;22.40;99.90;;;;;;5136012;27;20087;-77
2023/07/28 10:15:03;;;;;;;6.47;2.90;;;22.20;99.90;;;;;;5113708;27;20042;-76
2023/07/28 10:17:34;;;;;;;4.57;2.40;;;22.10;99.90;;;;;;5131575;27;20393;-78
2023/07/28 10:20:08;;;;;;;5.80;2.63;;;22.00;99.90;;;;;;5131392;27;20060;-78
2023/07/28 10:22:46;;;;;;;5.07;2.63;;;22.30;99.90;;;;;;5130968;27;20043;-78
2023/07/28 10:25:21;;;;;;;4.05;2.30;;;22.60;99.90;;;;;;5130906;27;20073;-78
2023/07/28 10:27:47;;;;;;;5.18;2.58;;;22.80;99.90;;;;;;5132814;27;20568;-78
2023/07/28 10:30:14;;;;;;;3.83;2.40;;;22.80;99.90;;;;;;5131014;27;20035;-78
2023/07/28 10:32:50;;;;;;;3.55;2.13;;;22.80;99.90;;;;;;5131049;27;20094;-78
2023/07/28 10:35:21;;;;;;;5.50;1.88;;;22.90;99.90;;;;;;5113195;27;20035;-78
2023/07/28 10:37:47;;;;;;;5.93;1.80;;;23.00;99.90;;;;;;5115770;27;20046;-77
2023/07/28 10:40:34;;;;;;;6.30;1.98;;;23.10;99.90;;;;;;5136914;27;20027;-78
2023/07/28 10:43:00;;;;;;;4.00;1.70;;;23.20;99.90;;;;;;5130347;27;20039;-77
2023/07/28 10:45:29;;;;;;;4.78;1.70;;;23.20;99.90;;;;;;5128294;27;20039;-77
2023/07/28 10:47:56;;;;;;;2.67;1.60;;;23.30;99.90;;;;;;5128545;27;20522;-78
2023/07/28 10:50:23;;;;;;;2.45;1.80;;;23.30;99.90;;;;;;5127992;27;20124;-78
2023/07/28 10:52:49;;;;;;;4.07;1.55;;;23.20;99.90;;;;;;5128821;27;20172;-77
2023/07/28 10:55:23;;;;;;;3.20;1.55;;;23.10;99.90;;;;;;5127843;27;20181;-78
2023/07/28 10:57:50;;;;;;;4.63;1.85;;;23.30;99.90;;;;;;5130642;27;20152;-78
2023/07/28 11:00:21;;;;;;;4.07;1.80;;;23.30;99.90;;;;;;5135356;27;20118;-79
2023/07/28 11:02:54;;;;;;;2.95;1.80;;;23.20;99.90;;;;;;5129907;27;20043;-78
2023/07/28 11:05:23;;;;;;;5.97;1.87;;;23.20;99.90;;;;;;5130325;27;20602;-77
2023/07/28 11:07:51;;;;;;;3.38;1.85;;;23.20;99.90;;;;;;5132050;27;20034;-77
2023/07/28 11:10:18;;;;;;;3.88;1.85;;;23.30;99.90;;;;;;5130879;27;20199;-78
2023/07/28 11:12:46;;;;;;;3.40;1.83;;;23.30;99.90;;;;;;5135547;27;20039;-79
2023/07/28 11:15:13;;;;;;;3.60;1.83;;;23.50;99.90;;;;;;5113002;27;20035;-78
2023/07/28 11:17:41;;;;;;;3.83;2.00;;;23.60;99.90;;;;;;5113186;27;20061;-76
2023/07/28 11:20:24;;;;;;;3.88;2.10;;;23.70;99.90;;;;;;5130593;27;20043;-78
2023/07/28 11:23:03;;;;;;;4.25;2.03;;;23.70;99.90;;;;;;5130646;27;20497;-78
2023/07/28 11:25:29;;;;;;;2.83;1.70;;;23.60;99.90;;;;;;5130302;27;20035;-79
2023/07/28 11:27:56;;;;;;;3.30;1.90;;;23.70;99.90;;;;;;5133278;27;20418;-78
2023/07/28 11:30:23;;;;;;;3.75;1.65;;;24.00;99.90;;;;;;5136165;27;20030;-79
2023/07/28 11:32:52;;;;;;;3.60;1.60;;;24.40;99.90;;;;;;5114998;27;20089;-78
2023/07/28 11:35:20;;;;;;;4.47;1.70;;;24.80;99.90;;;;;;5130732;27;20066;-79
2023/07/28 11:37:48;;;;;;;4.28;1.70;;;25.10;99.90;;;;;;5140325;27;20027;-78
2023/07/28 11:40:16;;;;;;;5.07;1.67;;;25.30;99.90;;;;;;5134108;27;20042;-78
2023/07/28 11:42:45;;;;;;;3.20;1.80;;;25.40;99.90;;;;;;5135330;27;20034;-77
2023/07/28 11:45:13;;;;;;;3.28;1.55;;;25.80;99.90;;;;;;5133110;27;20492;-78
2023/07/28 11:47:38;;;;;;;3.03;1.27;;;26.00;99.90;;;;;;5133122;27;20050;-78
2023/07/28 11:50:04;;;;;;;9.15;1.60;;;26.10;99.90;;;;;;5131541;27;20487;-78
2023/07/28 11:52:36;;;;;;;4.20;1.83;;;26.20;99.90;;;;;;5116429;27;20038;-78
2023/07/28 11:55:04;;;;;;;1.67;1.10;;;26.30;99.90;;;;;;5132191;27;20035;-79
2023/07/28 11:57:30;;;;;;;2.83;1.48;;;26.30;99.90;;;;;;5138947;27;20035;-79
2023/07/28 11:59:56;;;;;;;3.00;1.42;;;26.50;99.90;;;;;;5137005;27;20046;-80
2023/07/28 12:02:31;;;;;;;2.60;1.20;;;26.50;99.90;;;;;;5122350;27;20031;-80
2023/07/28 12:04:58;;;;;;;3.40;1.17;;;26.40;99.90;;;;;;5144389;27;20055;-80
2023/07/28 12:07:31;;;;;;;3.78;1.60;;;26.40;99.90;;;;;;5145790;27;20038;-76
2023/07/28 12:09:59;;;;;;;;;;;26.50;99.90;;;;;;5135643;27;20046;-79
2023/07/28 12:12:30;;;;;;;2.70;1.38;;;26.20;99.90;;;;;;5121948;27;20389;-76
2023/07/28 12:15:04;;;;;;;2.38;1.40;;;25.90;99.90;;;;;;5139813;27;20035;-78
2023/07/28 12:17:30;;;;;;;2.67;1.30;;;25.50;99.90;;;;;;5137599;27;20363;-77
2023/07/28 12:20:02;;;;;;;2.75;1.40;;;25.10;99.90;;;;;;5137787;27;20030;-77
2023/07/28 12:22:28;;;;;;;2.40;1.35;;;25.00;99.90;;;;;;5149541;27;20031;-77
2023/07/28 12:24:56;;;;;;;2.38;1.20;;;25.10;99.90;;;;;;5135807;27;20039;-79
2023/07/28 12:27:24;;;;;;;2.15;1.30;;;24.90;99.90;;;;;;5118893;27;20043;-77
2023/07/28 12:29:50;;;;;;;3.88;1.25;;;25.00;99.90;;;;;;5132944;27;20035;-78
2023/07/28 12:32:16;;;;;;;1.92;1.00;;;25.10;99.90;;;;;;5116736;27;20046;-78
2023/07/28 12:34:41;;;;;;;3.55;1.20;;;24.90;99.90;;;;;;5133116;27;20051;-76
2023/07/28 12:37:07;;;;;;;2.28;1.20;;;24.80;99.90;;;;;;5133630;27;20046;-78